sensor_id;sensor_type;location;lat;lon;timestamp;pressure;altitude;pressure_sealevel;temperature;humidity
49841;BME280;35738;49.890;5.930;2023-03-18T00:00:09;95115.94;;;9.06;100.00
49841;BME280;35738;49.890;5.930;2023-03-18T00:02:37;95110.47;;;9.06;100.00
49841;BME280;35738;49.890;5.930;2023-03-18T00:05:05;95114.09;;;8.98;100.00
49841;BME280;35738;49.890;5.930;2023-03-18T00:07:34;95119.78;;;8.93;100.00
49841;BME280;35738;49.890;5.930;2023-03-18T00:10:03;95119.56;;;8.98;100.00
49841;BME280;35738;49.890;5.930;2023-03-18T00:12:30;95119.22;;;8.99;100.00
49841;BME280;35738;49.890;5.930;2023-03-18T00:14:58;95120.38;;;8.98;100.00
49841;BME280;35738;49.890;5.930;2023-03-18T00:17:26;95120.63;;;9.05;100.00
49841;BME280;35738;49.890;5.930;2023-03-18T00:19:52;95118.56;;;9.02;100.00
49841;BME280;35738;49.890;5.930;2023-03-18T00:22:20;95116.28;;;9.04;100.00
49841;BME280;35738;49.890;5.930;2023-03-18T00:24:47;95119.69;;;9.01;100.00
49841;BME280;35738;49.890;5.930;2023-03-18T00:27:14;95114.34;;;9.05;100.00
49841;BME280;35738;49.890;5.930;2023-03-18T00:29:41;95132.75;;;9.04;100.00
49841;BME280;35738;49.890;5.930;2023-03-18T00:32:08;95129.31;;;9.07;100.00
49841;BME280;35738;49.890;5.930;2023-03-18T00:34:35;95127.03;;;9.09;100.00
49841;BME280;35738;49.890;5.930;2023-03-18T00:37:01;95116.50;;;8.99;100.00
49841;BME280;35738;49.890;5.930;2023-03-18T00:39:28;95116.69;;;8.94;100.00
49841;BME280;35738;49.890;5.930;2023-03-18T00:41:58;95115.69;;;8.99;100.00
49841;BME280;35738;49.890;5.930;2023-03-18T00:44:33;95119.56;;;8.98;100.00
49841;BME280;35738;49.890;5.930;2023-03-18T00:46:59;95132.03;;;8.95;100.00
49841;BME280;35738;49.890;5.930;2023-03-18T00:49:26;95126.66;;;8.99;100.00
49841;BME280;35738;49.890;5.930;2023-03-18T00:51:52;95139.28;;;8.91;100.00
49841;BME280;35738;49.890;5.930;2023-03-18T00:54:19;95132.63;;;8.80;100.00
49841;BME280;35738;49.890;5.930;2023-03-18T00:56:46;95135.56;;;8.75;100.00
49841;BME280;35738;49.890;5.930;2023-03-18T00:59:12;95140.97;;;8.63;100.00
49841;BME280;35738;49.890;5.930;2023-03-18T01:01:39;95138.84;;;8.47;100.00
49841;BME280;35738;49.890;5.930;2023-03-18T01:04:06;95147.53;;;8.49;100.00
49841;BME280;35738;49.890;5.930;2023-03-18T01:06:34;95141.09;;;8.87;100.00
49841;BME280;35738;49.890;5.930;2023-03-18T01:09:03;95135.50;;;8.63;100.00
49841;BME280;35738;49.890;5.930;2023-03-18T01:11:31;95128.63;;;8.56;100.00
49841;BME280;35738;49.890;5.930;2023-03-18T01:13:58;95131.97;;;8.41;100.00
49841;BME280;35738;49.890;5.930;2023-03-18T01:16:26;95130.72;;;8.30;100.00
49841;BME280;35738;49.890;5.930;2023-03-18T01:18:52;95139.00;;;8.21;100.00
49841;BME280;35738;49.890;5.930;2023-03-18T01:21:19;95126.44;;;8.20;100.00
49841;BME280;35738;49.890;5.930;2023-03-18T01:23:46;95134.88;;;8.07;100.00
49841;BME280;35738;49.890;5.930;2023-03-18T01:26:13;95132.13;;;8.07;100.00
49841;BME280;35738;49.890;5.930;2023-03-18T01:28:39;95137.53;;;7.94;100.00
49841;BME280;35738;49.890;5.930;2023-03-18T01:31:06;95135.34;;;7.79;100.00
49841;BME280;35738;49.890;5.930;2023-03-18T01:33:33;95131.81;;;7.79;100.00
49841;BME280;35738;49.890;5.930;2023-03-18T01:36:01;95131.63;;;7.84;100.00
49841;BME280;35738;49.890;5.930;2023-03-18T01:38:29;95121.28;;;7.89;100.00
49841;BME280;35738;49.890;5.930;2023-03-18T01:40:57;95119.50;;;7.93;100.00
49841;BME280;35738;49.890;5.930;2023-03-18T01:43:33;95111.19;;;7.81;100.00
49841;BME280;35738;49.890;5.930;2023-03-18T01:46:25;95116.38;;;7.74;100.00
49841;BME280;35738;49.890;5.930;2023-03-18T01:48:49;95117.13;;;7.83;100.00
49841;BME280;35738;49.890;5.930;2023-03-18T01:51:18;95118.13;;;7.79;100.00
49841;BME280;35738;49.890;5.930;2023-03-18T01:53:47;95119.31;;;7.69;100.00
49841;BME280;35738;49.890;5.930;2023-03-18T01:56:15;95123.41;;;7.54;100.00
49841;BME280;35738;49.890;5.930;2023-03-18T01:58:45;95114.69;;;7.61;100.00
49841;BME280;35738;49.890;5.930;2023-03-18T02:03:44;95116.94;;;7.59;100.00
49841;BME280;35738;49.890;5.930;2023-03-18T02:06:14;95122.44;;;7.50;100.00
49841;BME280;35738;49.890;5.930;2023-03-18T02:08:41;95120.38;;;7.47;100.00
49841;BME280;35738;49.890;5.930;2023-03-18T02:11:08;95119.09;;;7.45;100.00
49841;BME280;35738;49.890;5.930;2023-03-18T02:13:38;95112.78;;;7.53;100.00
49841;BME280;35738;49.890;5.930;2023-03-18T02:16:09;95120.50;;;7.51;100.00
49841;BME280;35738;49.890;5.930;2023-03-18T02:18:53;95117.31;;;7.49;100.00
49841;BME280;35738;49.890;5.930;2023-03-18T02:27:02;95123.25;;;7.51;100.00
49841;BME280;35738;49.890;5.930;2023-03-18T02:29:32;95121.78;;;7.53;100.00
49841;BME280;35738;49.890;5.930;2023-03-18T02:32:03;95128.06;;;7.54;100.00
49841;BME280;35738;49.890;5.930;2023-03-18T02:34:32;95121.66;;;7.50;100.00
49841;BME280;35738;49.890;5.930;2023-03-18T02:36:59;95119.91;;;7.45;100.00
49841;BME280;35738;49.890;5.930;2023-03-18T02:39:26;95121.94;;;7.57;100.00
49841;BME280;35738;49.890;5.930;2023-03-18T02:41:55;95125.00;;;7.55;100.00
49841;BME280;35738;49.890;5.930;2023-03-18T02:44:22;95128.69;;;7.59;100.00
49841;BME280;35738;49.890;5.930;2023-03-18T02:46:55;95126.09;;;7.63;100.00
49841;BME280;35738;49.890;5.930;2023-03-18T02:49:25;95138.00;;;7.67;100.00
49841;BME280;35738;49.890;5.930;2023-03-18T02:51:53;95125.16;;;7.59;100.00
49841;BME280;35738;49.890;5.930;2023-03-18T02:54:23;95135.16;;;7.55;100.00
49841;BME280;35738;49.890;5.930;2023-03-18T02:56:50;95132.88;;;7.57;100.00
49841;BME280;35738;49.890;5.930;2023-03-18T02:59:18;95132.69;;;7.62;100.00
49841;BME280;35738;49.890;5.930;2023-03-18T03:01:47;95133.03;;;7.60;100.00
49841;BME280;35738;49.890;5.930;2023-03-18T03:04:15;95125.16;;;7.59;100.00
49841;BME280;35738;49.890;5.930;2023-03-18T03:06:43;95131.75;;;7.58;100.00
49841;BME280;35738;49.890;5.930;2023-03-18T03:09:13;95136.75;;;7.56;100.00
49841;BME280;35738;49.890;5.930;2023-03-18T03:11:42;95134.00;;;7.56;100.00
49841;BME280;35738;49.890;5.930;2023-03-18T03:14:10;95156.56;;;7.53;100.00
49841;BME280;35738;49.890;5.930;2023-03-18T03:16:37;95148.38;;;7.36;100.00
49841;BME280;35738;49.890;5.930;2023-03-18T03:19:04;95149.34;;;7.48;100.00
49841;BME280;35738;49.890;5.930;2023-03-18T03:21:32;95149.19;;;7.36;100.00
49841;BME280;35738;49.890;5.930;2023-03-18T03:24:05;95156.13;;;7.25;100.00
49841;BME280;35738;49.890;5.930;2023-03-18T03:26:31;95163.81;;;7.49;100.00
49841;BME280;35738;49.890;5.930;2023-03-18T03:28:59;95161.56;;;7.51;100.00
49841;BME280;35738;49.890;5.930;2023-03-18T03:31:26;95167.22;;;7.46;100.00
49841;BME280;35738;49.890;5.930;2023-03-18T03:33:53;95171.06;;;7.45;100.00
49841;BME280;35738;49.890;5.930;2023-03-18T03:36:20;95170.56;;;7.43;100.00
49841;BME280;35738;49.890;5.930;2023-03-18T03:38:46;95164.50;;;7.28;100.00
49841;BME280;35738;49.890;5.930;2023-03-18T03:41:13;95166.72;;;7.35;100.00
49841;BME280;35738;49.890;5.930;2023-03-18T03:43:41;95172.25;;;7.18;100.00
49841;BME280;35738;49.890;5.930;2023-03-18T03:46:08;95174.81;;;7.14;100.00
49841;BME280;35738;49.890;5.930;2023-03-18T03:48:36;95174.50;;;7.07;100.00
49841;BME280;35738;49.890;5.930;2023-03-18T03:51:04;95171.63;;;7.04;100.00
49841;BME280;35738;49.890;5.930;2023-03-18T03:53:31;95182.72;;;7.07;100.00
49841;BME280;35738;49.890;5.930;2023-03-18T03:55:57;95173.88;;;7.10;100.00
49841;BME280;35738;49.890;5.930;2023-03-18T03:58:25;95176.13;;;7.08;100.00
49841;BME280;35738;49.890;5.930;2023-03-18T04:00:51;95183.38;;;7.04;100.00
49841;BME280;35738;49.890;5.930;2023-03-18T04:03:18;95188.03;;;7.04;100.00
49841;BME280;35738;49.890;5.930;2023-03-18T04:05:45;95189.00;;;6.99;100.00
49841;BME280;35738;49.890;5.930;2023-03-18T04:08:11;95187.06;;;6.91;100.00
49841;BME280;35738;49.890;5.930;2023-03-18T04:10:38;95185.31;;;6.86;100.00
49841;BME280;35738;49.890;5.930;2023-03-18T04:13:05;95182.41;;;6.83;100.00
49841;BME280;35738;49.890;5.930;2023-03-18T04:15:31;95188.69;;;6.83;100.00
49841;BME280;35738;49.890;5.930;2023-03-18T04:17:58;95194.81;;;6.80;100.00
49841;BME280;35738;49.890;5.930;2023-03-18T04:20:29;95191.91;;;6.77;100.00
49841;BME280;35738;49.890;5.930;2023-03-18T04:22:57;95193.50;;;6.78;100.00
49841;BME280;35738;49.890;5.930;2023-03-18T04:25:24;95192.22;;;6.75;100.00
49841;BME280;35738;49.890;5.930;2023-03-18T04:27:50;95198.50;;;6.76;100.00
49841;BME280;35738;49.890;5.930;2023-03-18T04:30:18;95197.84;;;6.79;100.00
49841;BME280;35738;49.890;5.930;2023-03-18T04:32:45;95201.56;;;6.74;100.00
49841;BME280;35738;49.890;5.930;2023-03-18T04:35:12;95199.09;;;6.64;100.00
49841;BME280;35738;49.890;5.930;2023-03-18T04:37:38;95194.78;;;6.54;100.00
49841;BME280;35738;49.890;5.930;2023-03-18T04:40:05;95192.66;;;6.43;100.00
49841;BME280;35738;49.890;5.930;2023-03-18T04:42:32;95194.91;;;6.41;100.00
49841;BME280;35738;49.890;5.930;2023-03-18T04:44:59;95200.53;;;6.35;100.00
49841;BME280;35738;49.890;5.930;2023-03-18T04:47:25;95195.72;;;6.41;100.00
49841;BME280;35738;49.890;5.930;2023-03-18T04:49:53;95196.19;;;6.34;100.00
49841;BME280;35738;49.890;5.930;2023-03-18T04:52:20;95197.16;;;6.30;100.00
49841;BME280;35738;49.890;5.930;2023-03-18T04:54:46;95190.88;;;6.29;100.00
49841;BME280;35738;49.890;5.930;2023-03-18T04:57:13;95189.59;;;6.27;100.00
49841;BME280;35738;49.890;5.930;2023-03-18T04:59:39;95185.75;;;6.28;100.00
49841;BME280;35738;49.890;5.930;2023-03-18T05:02:07;95192.31;;;6.27;100.00
49841;BME280;35738;49.890;5.930;2023-03-18T05:04:34;95191.06;;;6.33;100.00
49841;BME280;35738;49.890;5.930;2023-03-18T05:07:00;95189.28;;;6.37;100.00
49841;BME280;35738;49.890;5.930;2023-03-18T05:09:27;95185.44;;;6.38;100.00
49841;BME280;35738;49.890;5.930;2023-03-18T05:11:53;95193.16;;;6.36;100.00
49841;BME280;35738;49.890;5.930;2023-03-18T05:14:20;95194.91;;;6.41;100.00
49841;BME280;35738;49.890;5.930;2023-03-18T05:16:47;95195.06;;;6.44;100.00
49841;BME280;35738;49.890;5.930;2023-03-18T05:19:14;95190.59;;;6.48;100.00
49841;BME280;35738;49.890;5.930;2023-03-18T05:21:42;95190.41;;;6.45;100.00
49841;BME280;35738;49.890;5.930;2023-03-18T05:24:08;95187.22;;;6.43;100.00
49841;BME280;35738;49.890;5.930;2023-03-18T05:26:35;95191.06;;;6.33;100.00
49841;BME280;35738;49.890;5.930;2023-03-18T05:29:02;95190.25;;;6.41;100.00
49841;BME280;35738;49.890;5.930;2023-03-18T05:31:29;95194.91;;;6.41;100.00
49841;BME280;35738;49.890;5.930;2023-03-18T05:33:55;95185.44;;;6.38;100.00
49841;BME280;35738;49.890;5.930;2023-03-18T05:36:22;95181.75;;;6.43;100.00
49841;BME280;35738;49.890;5.930;2023-03-18T05:38:49;95187.03;;;6.39;100.00
49841;BME280;35738;49.890;5.930;2023-03-18T05:41:16;95181.25;;;6.49;100.00
49841;BME280;35738;49.890;5.930;2023-03-18T05:43:42;95184.31;;;6.48;100.00
49841;BME280;35738;49.890;5.930;2023-03-18T05:46:09;95185.28;;;6.43;100.00
49841;BME280;35738;49.890;5.930;2023-03-18T05:48:37;95181.91;;;6.46;100.00
49841;BME280;35738;49.890;5.930;2023-03-18T05:51:03;95185.13;;;6.48;100.00
49841;BME280;35738;49.890;5.930;2023-03-18T05:53:31;95186.41;;;6.42;100.00
49841;BME280;35738;49.890;5.930;2023-03-18T05:55:57;95185.75;;;6.45;100.00
49841;BME280;35738;49.890;5.930;2023-03-18T05:58:24;95187.53;;;6.50;100.00
49841;BME280;35738;49.890;5.930;2023-03-18T06:00:51;95193.63;;;6.47;100.00
49841;BME280;35738;49.890;5.930;2023-03-18T06:03:18;95193.81;;;6.50;100.00
49841;BME280;35738;49.890;5.930;2023-03-18T06:05:44;95193.47;;;6.52;100.00
49841;BME280;35738;49.890;5.930;2023-03-18T06:08:11;95193.00;;;6.58;100.00
49841;BME280;35738;49.890;5.930;2023-03-18T06:10:38;95200.72;;;6.65;100.00
49841;BME280;35738;49.890;5.930;2023-03-18T06:13:05;95201.72;;;6.69;100.00
49841;BME280;35738;49.890;5.930;2023-03-18T06:15:32;95202.84;;;6.77;100.00
49841;BME280;35738;49.890;5.930;2023-03-18T06:17:59;95203.97;;;6.84;100.00
49841;BME280;35738;49.890;5.930;2023-03-18T06:20:25;95205.69;;;7.23;100.00
49841;BME280;35738;49.890;5.930;2023-03-18T06:22:52;95200.81;;;7.55;100.00
49841;BME280;35738;49.890;5.930;2023-03-18T06:25:20;95198.03;;;7.72;100.00
49841;BME280;35738;49.890;5.930;2023-03-18T06:27:46;95198.28;;;8.17;100.00
49841;BME280;35738;49.890;5.930;2023-03-18T06:30:14;95207.47;;;8.21;100.00
49841;BME280;35738;49.890;5.930;2023-03-18T06:32:42;95212.81;;;7.80;100.00
49841;BME280;35738;49.890;5.930;2023-03-18T06:35:09;95214.34;;;7.43;100.00
49841;BME280;35738;49.890;5.930;2023-03-18T06:37:37;95209.06;;;7.29;100.00
49841;BME280;35738;49.890;5.930;2023-03-18T06:40:05;95223.56;;;7.21;100.00
49841;BME280;35738;49.890;5.930;2023-03-18T06:42:32;95223.56;;;7.12;100.00
49841;BME280;35738;49.890;5.930;2023-03-18T06:44:58;95221.47;;;7.09;100.00
49841;BME280;35738;49.890;5.930;2023-03-18T06:47:25;95226.31;;;7.04;100.00
49841;BME280;35738;49.890;5.930;2023-03-18T06:49:51;95217.63;;;6.93;100.00
49841;BME280;35738;49.890;5.930;2023-03-18T06:52:18;95220.03;;;6.94;100.00
49841;BME280;35738;49.890;5.930;2023-03-18T06:54:45;95217.28;;;7.03;100.00
49841;BME280;35738;49.890;5.930;2023-03-18T06:57:11;95219.53;;;7.10;100.00
49841;BME280;35738;49.890;5.930;2023-03-18T06:59:38;95211.47;;;7.30;100.00
49841;BME280;35738;49.890;5.930;2023-03-18T07:02:05;95222.38;;;7.39;100.00
49841;BME280;35738;49.890;5.930;2023-03-18T07:04:33;95222.72;;;7.38;100.00
49841;BME280;35738;49.890;5.930;2023-03-18T07:07:01;95225.28;;;7.43;100.00
49841;BME280;35738;49.890;5.930;2023-03-18T07:09:27;95221.44;;;7.44;100.00
49841;BME280;35738;49.890;5.930;2023-03-18T07:11:54;95227.53;;;7.58;100.00
49841;BME280;35738;49.890;5.930;2023-03-18T07:14:21;95220.88;;;7.76;100.00
49841;BME280;35738;49.890;5.930;2023-03-18T07:16:48;95220.97;;;7.88;100.00
49841;BME280;35738;49.890;5.930;2023-03-18T07:19:15;95221.22;;;8.04;100.00
49841;BME280;35738;49.890;5.930;2023-03-18T07:21:43;95230.44;;;8.00;100.00
49841;BME280;35738;49.890;5.930;2023-03-18T07:24:11;95228.72;;;8.24;100.00
49841;BME280;35738;49.890;5.930;2023-03-18T07:26:37;95224.75;;;8.51;100.00
49841;BME280;35738;49.890;5.930;2023-03-18T07:29:04;95228.50;;;8.68;100.00
49841;BME280;35738;49.890;5.930;2023-03-18T07:31:31;95227.63;;;8.76;100.00
49841;BME280;35738;49.890;5.930;2023-03-18T07:33:57;95234.28;;;9.16;97.16
49841;BME280;35738;49.890;5.930;2023-03-18T07:36:24;95233.88;;;9.27;96.56
49841;BME280;35738;49.890;5.930;2023-03-18T07:38:51;95238.72;;;9.42;95.89
49841;BME280;35738;49.890;5.930;2023-03-18T07:41:18;95248.56;;;9.43;93.60
49841;BME280;35738;49.890;5.930;2023-03-18T07:43:44;95248.59;;;9.22;92.59
49841;BME280;35738;49.890;5.930;2023-03-18T07:46:11;95247.13;;;9.24;94.07
49841;BME280;35738;49.890;5.930;2023-03-18T07:48:37;95254.53;;;9.24;93.46
49841;BME280;35738;49.890;5.930;2023-03-18T07:51:04;95252.75;;;9.28;93.67
49841;BME280;35738;49.890;5.930;2023-03-18T07:53:31;95259.22;;;9.23;94.64
49841;BME280;35738;49.890;5.930;2023-03-18T07:55:58;95247.19;;;9.16;93.60
49841;BME280;35738;49.890;5.930;2023-03-18T07:58:25;95251.34;;;9.22;93.68
49841;BME280;35738;49.890;5.930;2023-03-18T08:00:52;95247.63;;;9.39;92.47
49841;BME280;35738;49.890;5.930;2023-03-18T08:03:19;95260.88;;;9.37;90.55
49841;BME280;35738;49.890;5.930;2023-03-18T08:05:45;95253.28;;;9.21;89.96
49841;BME280;35738;49.890;5.930;2023-03-18T08:08:12;95257.81;;;9.38;89.55
49841;BME280;35738;49.890;5.930;2023-03-18T08:10:38;95261.88;;;9.53;89.76
49841;BME280;35738;49.890;5.930;2023-03-18T08:13:05;95257.56;;;9.64;88.45
49841;BME280;35738;49.890;5.930;2023-03-18T08:15:31;95256.41;;;9.65;86.84
49841;BME280;35738;49.890;5.930;2023-03-18T08:17:58;95268.06;;;9.62;85.05
49841;BME280;35738;49.890;5.930;2023-03-18T08:20:25;95259.31;;;9.69;85.09
49841;BME280;35738;49.890;5.930;2023-03-18T08:22:52;95265.84;;;9.76;85.49
49841;BME280;35738;49.890;5.930;2023-03-18T08:25:19;95265.72;;;9.73;85.36
49841;BME280;35738;49.890;5.930;2023-03-18T08:27:49;95267.69;;;9.51;86.12
49841;BME280;35738;49.890;5.930;2023-03-18T08:30:15;95263.53;;;9.66;86.32
49841;BME280;35738;49.890;5.930;2023-03-18T08:32:42;95268.94;;;9.75;86.19
49841;BME280;35738;49.890;5.930;2023-03-18T08:35:10;95266.66;;;9.77;85.57
49841;BME280;35738;49.890;5.930;2023-03-18T08:37:37;95273.16;;;9.72;86.16
49841;BME280;35738;49.890;5.930;2023-03-18T08:40:04;95279.56;;;9.43;86.24
49841;BME280;35738;49.890;5.930;2023-03-18T08:42:31;95275.03;;;9.27;87.33
49841;BME280;35738;49.890;5.930;2023-03-18T08:44:57;95272.03;;;9.52;87.80
49841;BME280;35738;49.890;5.930;2023-03-18T08:47:24;95271.38;;;9.55;87.46
49841;BME280;35738;49.890;5.930;2023-03-18T08:49:50;95268.19;;;9.66;88.19
49841;BME280;35738;49.890;5.930;2023-03-18T08:52:17;95281.06;;;9.74;86.81
49841;BME280;35738;49.890;5.930;2023-03-18T08:54:44;95279.63;;;9.88;85.40
49841;BME280;35738;49.890;5.930;2023-03-18T08:57:11;95292.94;;;9.99;85.40
49841;BME280;35738;49.890;5.930;2023-03-18T08:59:37;95297.84;;;9.93;85.26
49841;BME280;35738;49.890;5.930;2023-03-18T09:02:04;95292.22;;;9.90;85.35
49841;BME280;35738;49.890;5.930;2023-03-18T09:04:31;95291.53;;;9.93;85.16
49841;BME280;35738;49.890;5.930;2023-03-18T09:06:58;95285.38;;;9.96;85.31
49841;BME280;35738;49.890;5.930;2023-03-18T09:09:26;95290.28;;;9.90;85.23
49841;BME280;35738;49.890;5.930;2023-03-18T09:12:08;95285.47;;;9.99;84.94
49841;BME280;35738;49.890;5.930;2023-03-18T09:14:37;95292.44;;;9.84;85.43
49841;BME280;35738;49.890;5.930;2023-03-18T09:17:04;95294.75;;;9.95;85.38
49841;BME280;35738;49.890;5.930;2023-03-18T09:19:32;95303.53;;;10.33;83.83
49841;BME280;35738;49.890;5.930;2023-03-18T09:21:58;95291.91;;;10.48;82.60
49841;BME280;35738;49.890;5.930;2023-03-18T09:24:25;95302.22;;;10.64;83.09
49841;BME280;35738;49.890;5.930;2023-03-18T09:26:51;95297.75;;;10.71;80.48
49841;BME280;35738;49.890;5.930;2023-03-18T09:29:18;95288.88;;;11.02;80.67
49841;BME280;35738;49.890;5.930;2023-03-18T09:31:44;95300.47;;;11.20;78.94
49841;BME280;35738;49.890;5.930;2023-03-18T09:34:11;95297.56;;;11.29;78.61
49841;BME280;35738;49.890;5.930;2023-03-18T09:36:39;95304.66;;;11.42;78.77
49841;BME280;35738;49.890;5.930;2023-03-18T09:39:06;95301.88;;;11.82;79.12
49841;BME280;35738;49.890;5.930;2023-03-18T09:42:07;95305.69;;;11.90;76.32
49841;BME280;35738;49.890;5.930;2023-03-18T09:44:32;95303.16;;;12.13;76.22
49841;BME280;35738;49.890;5.930;2023-03-18T09:47:22;95314.53;;;12.27;73.63
49841;BME280;35738;49.890;5.930;2023-03-18T09:53:20;95297.59;;;11.97;74.62
49841;BME280;35738;49.890;5.930;2023-03-18T09:58:27;95306.03;;;11.76;74.97
49841;BME280;35738;49.890;5.930;2023-03-18T10:00:59;95297.97;;;12.11;73.99
49841;BME280;35738;49.890;5.930;2023-03-18T10:06:16;95294.19;;;11.75;75.08
49841;BME280;35738;49.890;5.930;2023-03-18T10:11:53;95296.28;;;11.78;73.37
49841;BME280;35738;49.890;5.930;2023-03-18T10:14:47;95303.25;;;12.16;73.21
49841;BME280;35738;49.890;5.930;2023-03-18T10:17:20;95307.22;;;12.03;72.76
49841;BME280;35738;49.890;5.930;2023-03-18T10:19:53;95311.44;;;11.72;73.25
49841;BME280;35738;49.890;5.930;2023-03-18T10:22:46;95316.88;;;11.57;74.12
49841;BME280;35738;49.890;5.930;2023-03-18T10:31:00;95313.25;;;11.81;72.55
49841;BME280;35738;49.890;5.930;2023-03-18T10:34:01;95320.47;;;11.85;71.72
49841;BME280;35738;49.890;5.930;2023-03-18T10:36:38;95317.94;;;11.92;72.25
49841;BME280;35738;49.890;5.930;2023-03-18T10:39:15;95320.81;;;11.84;70.65
49841;BME280;35738;49.890;5.930;2023-03-18T10:41:43;95320.84;;;11.71;72.20
49841;BME280;35738;49.890;5.930;2023-03-18T10:44:23;95319.34;;;11.74;72.87
49841;BME280;35738;49.890;5.930;2023-03-18T10:47:00;95333.38;;;11.69;73.45
49841;BME280;35738;49.890;5.930;2023-03-18T10:49:35;95326.25;;;11.28;73.93
49841;BME280;35738;49.890;5.930;2023-03-18T10:54:56;95325.25;;;10.96;76.66
49841;BME280;35738;49.890;5.930;2023-03-18T10:57:23;95316.31;;;10.74;76.04
49841;BME280;35738;49.890;5.930;2023-03-18T10:59:50;95312.03;;;11.13;77.56
49841;BME280;35738;49.890;5.930;2023-03-18T11:02:32;95315.78;;;11.86;75.05
49841;BME280;35738;49.890;5.930;2023-03-18T11:05:03;95308.47;;;12.05;73.35
49841;BME280;35738;49.890;5.930;2023-03-18T11:07:30;95298.53;;;11.89;73.25
49841;BME280;35738;49.890;5.930;2023-03-18T11:10:17;95302.72;;;11.70;74.95
49841;BME280;35738;49.890;5.930;2023-03-18T11:12:48;95307.06;;;11.84;73.44
49841;BME280;35738;49.890;5.930;2023-03-18T11:15:19;95303.81;;;11.94;74.30
49841;BME280;35738;49.890;5.930;2023-03-18T11:17:47;95301.25;;;12.01;73.01
49841;BME280;35738;49.890;5.930;2023-03-18T11:20:20;95306.47;;;11.50;73.15
49841;BME280;35738;49.890;5.930;2023-03-18T11:22:51;95299.41;;;11.65;73.46
49841;BME280;35738;49.890;5.930;2023-03-18T11:25:20;95308.34;;;11.34;73.57
49841;BME280;35738;49.890;5.930;2023-03-18T11:27:51;95308.69;;;11.32;74.71
49841;BME280;35738;49.890;5.930;2023-03-18T11:30:26;64502.56;;;-145.03;100.00
49841;BME280;35738;49.890;5.930;2023-03-18T11:35:42;64502.56;;;-145.03;100.00
49841;BME280;35738;49.890;5.930;2023-03-18T11:38:23;64502.56;;;-145.03;100.00
49841;BME280;35738;49.890;5.930;2023-03-18T11:43:30;64502.56;;;-145.03;100.00
49841;BME280;35738;49.890;5.930;2023-03-18T11:46:00;64502.56;;;-145.03;100.00
49841;BME280;35738;49.890;5.930;2023-03-18T11:48:31;64502.56;;;-145.03;100.00
49841;BME280;35738;49.890;5.930;2023-03-18T11:51:12;64502.56;;;-145.03;100.00
49841;BME280;35738;49.890;5.930;2023-03-18T11:56:43;64502.56;;;-145.03;100.00
49841;BME280;35738;49.890;5.930;2023-03-18T12:07:44;64502.56;;;-145.03;100.00
49841;BME280;35738;49.890;5.930;2023-03-18T12:10:30;64502.56;;;-145.03;100.00
49841;BME280;35738;49.890;5.930;2023-03-18T12:13:29;64502.56;;;-145.03;100.00
49841;BME280;35738;49.890;5.930;2023-03-18T12:16:10;64502.56;;;-145.03;100.00
49841;BME280;35738;49.890;5.930;2023-03-18T12:32:07;64502.56;;;-145.03;100.00
49841;BME280;35738;49.890;5.930;2023-03-18T12:34:46;64502.56;;;-145.03;100.00
49841;BME280;35738;49.890;5.930;2023-03-18T12:39:50;64502.56;;;-145.03;100.00
49841;BME280;35738;49.890;5.930;2023-03-18T12:42:35;64502.56;;;-145.03;100.00
49841;BME280;35738;49.890;5.930;2023-03-18T12:45:09;64502.56;;;-145.03;100.00
49841;BME280;35738;49.890;5.930;2023-03-18T12:53:02;64502.56;;;-145.03;100.00
49841;BME280;35738;49.890;5.930;2023-03-18T12:55:32;64502.56;;;-145.03;100.00
49841;BME280;35738;49.890;5.930;2023-03-18T13:01:01;64502.56;;;-145.03;100.00
49841;BME280;35738;49.890;5.930;2023-03-18T13:03:41;64502.56;;;-145.03;100.00
49841;BME280;35738;49.890;5.930;2023-03-18T13:06:19;64502.56;;;-145.03;100.00
49841;BME280;35738;49.890;5.930;2023-03-18T13:14:52;64502.56;;;-145.03;100.00
49841;BME280;35738;49.890;5.930;2023-03-18T13:17:34;64502.56;;;-145.03;100.00
49841;BME280;35738;49.890;5.930;2023-03-18T13:20:29;64502.56;;;-145.03;100.00
49841;BME280;35738;49.890;5.930;2023-03-18T13:31:25;64502.56;;;-145.03;100.00
49841;BME280;35738;49.890;5.930;2023-03-18T13:39:57;64502.56;;;-145.03;100.00
49841;BME280;35738;49.890;5.930;2023-03-18T13:42:34;64502.56;;;-145.03;100.00
49841;BME280;35738;49.890;5.930;2023-03-18T13:47:34;64502.56;;;-145.03;100.00
49841;BME280;35738;49.890;5.930;2023-03-18T13:50:28;64502.56;;;-145.03;100.00
49841;BME280;35738;49.890;5.930;2023-03-18T13:52:57;64502.56;;;-145.03;100.00
49841;BME280;35738;49.890;5.930;2023-03-18T13:55:45;64502.56;;;-145.03;100.00
49841;BME280;35738;49.890;5.930;2023-03-18T14:13:43;64502.56;;;-145.03;100.00
49841;BME280;35738;49.890;5.930;2023-03-18T14:16:11;64502.56;;;-145.03;100.00
49841;BME280;35738;49.890;5.930;2023-03-18T14:18:38;64502.56;;;-145.03;100.00
49841;BME280;35738;49.890;5.930;2023-03-18T14:21:21;64502.56;;;-145.03;100.00
49841;BME280;35738;49.890;5.930;2023-03-18T14:24:12;64502.56;;;-145.03;100.00
49841;BME280;35738;49.890;5.930;2023-03-18T14:26:39;64502.56;;;-145.03;100.00
49841;BME280;35738;49.890;5.930;2023-03-18T14:39:42;64502.56;;;-145.03;100.00
49841;BME280;35738;49.890;5.930;2023-03-18T14:42:27;64502.56;;;-145.03;100.00
49841;BME280;35738;49.890;5.930;2023-03-18T14:45:00;64502.56;;;-145.03;100.00
49841;BME280;35738;49.890;5.930;2023-03-18T14:47:40;64502.56;;;-145.03;100.00
49841;BME280;35738;49.890;5.930;2023-03-18T14:55:32;64502.56;;;-145.03;100.00
49841;BME280;35738;49.890;5.930;2023-03-18T14:58:01;64502.56;;;-145.03;100.00
49841;BME280;35738;49.890;5.930;2023-03-18T15:00:31;64502.56;;;-145.03;100.00
49841;BME280;35738;49.890;5.930;2023-03-18T15:03:03;64502.56;;;-145.03;100.00
49841;BME280;35738;49.890;5.930;2023-03-18T15:05:36;64502.56;;;-145.03;100.00
49841;BME280;35738;49.890;5.930;2023-03-18T15:08:21;64502.56;;;-145.03;100.00
49841;BME280;35738;49.890;5.930;2023-03-18T15:11:02;64502.56;;;-145.03;100.00
49841;BME280;35738;49.890;5.930;2023-03-18T15:13:31;64502.56;;;-145.03;100.00